Nissos Samos — SVAI7 — position and weather

sailwx.info

Track history (hours):
 
Tides and Currents Weather Stations Pressure Air Temp Water Temp Dewpoint Dewpoint Depression Visibility Wind Speed Wind Dir Waves Ship Positions

Nissos Samos

Last reported at 2018-May-25 18:43 UTC. Time now 2018-May-27 08:10 UTC.
Position N 37°39' E 023°49'.

Length 193 m; draft 6.6 m.

Type: Passenger vessel. MMSI: 241470000.

Date/timePositionNaut miles runAvg speedWind from/ knotsBaromVisibWave heightAir tempDewpointWater temp
2018-May-25 18:43N 37°39' E 023°49'519.3
2018-May-25 18:26N 37°41' E 023°42'819.7
2018-May-25 18:01N 37°49' E 023°38'815.1
2018-May-25 17:29N 37°56' E 023°38'0 0.0
2018-May-25 16:59N 37°56' E 023°38'0 0.0
2018-May-25 16:29N 37°56' E 023°38'0 0.0
2018-May-25 15:56N 37°56' E 023°38'0 0.0
2018-May-25 15:29N 37°56' E 023°38'0 0.0
2018-May-25 14:59N 37°56' E 023°38'0 0.0
2018-May-25 14:26N 37°56' E 023°38'0 0.0
2018-May-25 13:59N 37°56' E 023°38'0 0.0
2018-May-25 13:29N 37°56' E 023°38'0 0.0
2018-May-25 12:56N 37°56' E 023°38'0 0.0
2018-May-25 12:29N 37°56' E 023°38'0 0.0
2018-May-25 11:59N 37°56' E 023°38'0 0.0
2018-May-25 11:29N 37°56' E 023°38'0 0.0
2018-May-25 10:59N 37°56' E 023°38'0 0.0
2018-May-25 10:29N 37°56' E 023°38'0 0.0
2018-May-25 09:59N 37°56' E 023°38'0 0.0
2018-May-25 09:29N 37°56' E 023°38'0 0.0
2018-May-25 08:59N 37°56' E 023°38'0 0.0
2018-May-25 08:29N 37°56' E 023°38'0 0.0
2018-May-25 07:59N 37°56' E 023°38'0 0.0
2018-May-25 07:29N 37°56' E 023°38'0 0.0
2018-May-25 06:59N 37°56' E 023°38'0 0.0
2018-May-25 06:29N 37°56' E 023°38'0 0.0
2018-May-25 05:59N 37°56' E 023°38'0 0.0
2018-May-25 05:29N 37°56' E 023°38'0 0.0
2018-May-25 04:59N 37°56' E 023°38'0 0.0
2018-May-25 04:29N 37°56' E 023°38'0 0.0
2018-May-25 03:59N 37°56' E 023°38'0 0.0
2018-May-25 03:29N 37°56' E 023°38'2 3.5
2018-May-25 03:00N 37°55' E 023°37'918.9
2018-May-25 02:30N 37°46' E 023°43'918.6
2018-May-25 02:00N 37°40' E 023°51'1319.6
2018-May-25 01:21N 37°38' E 024°07'1020.3
2018-May-25 00:52N 37°45' E 024°17'10 0.3
2018-May-23 19:36N 37°38' E 024°07'619.2
2018-May-23 19:19N 37°38' E 023°60'619.7
2018-May-23 19:00N 37°38' E 023°52'918.7
2018-May-23 18:31N 37°42' E 023°41'1019.4
2018-May-23 18:01N 37°51' E 023°37'610.7
2018-May-23 17:29N 37°56' E 023°38'0 0.0
2018-May-23 16:59N 37°56' E 023°38'0 0.0
2018-May-23 16:29N 37°56' E 023°38'0 0.0
2018-May-23 15:59N 37°56' E 023°38'0 0.0
2018-May-23 15:29N 37°56' E 023°38'0 0.0
2018-May-23 14:59N 37°56' E 023°38'0 0.0
2018-May-23 14:29N 37°56' E 023°38'0 0.0
2018-May-23 13:59N 37°56' E 023°38'0 0.0
2018-May-23 13:29N 37°56' E 023°38'0 0.0
2018-May-23 12:59N 37°56' E 023°38'0 0.0
2018-May-23 12:29N 37°56' E 023°38'0 0.0
2018-May-23 11:59N 37°56' E 023°38'0 0.0
2018-May-23 11:29N 37°56' E 023°38'0 0.0
2018-May-23 10:59N 37°56' E 023°38'0 0.0
2018-May-23 10:29N 37°56' E 023°38'0 0.0
2018-May-23 09:59N 37°56' E 023°38'0 0.0
2018-May-23 09:29N 37°56' E 023°38'0 0.0
2018-May-23 08:59N 37°56' E 023°38'0 0.0
2018-May-23 08:29N 37°56' E 023°38'0 0.0
2018-May-23 07:59N 37°56' E 023°38'0 0.0
2018-May-23 07:29N 37°56' E 023°38'0 0.0
2018-May-23 06:59N 37°56' E 023°38'0 0.0
2018-May-23 06:29N 37°56' E 023°38'0 0.0
2018-May-23 05:59N 37°56' E 023°38'0 0.0
2018-May-23 05:29N 37°56' E 023°38'0 0.0
2018-May-23 04:59N 37°56' E 023°38'0 0.0
2018-May-23 04:30N 37°56' E 023°38'0 0.0
2018-May-23 04:00N 37°56' E 023°38'1 2.9
2018-May-23 03:30N 37°55' E 023°37'917.3
2018-May-23 03:00N 37°47' E 023°42'918.8
2018-May-23 02:30N 37°40' E 023°50'1419.7
2018-May-23 01:49N 37°38' E 024°07'920.7
2018-May-23 01:22N 37°44' E 024°16'820.7
2018-May-23 00:58N 37°49' E 024°25'17 0.6
2018-May-21 19:32N 37°38' E 024°07'218.7
2018-May-21 19:24N 37°38' E 024°04'819.5
2018-May-21 18:59N 37°38' E 023°54'919.6
2018-May-21 18:31N 37°41' E 023°43'1019.3
2018-May-21 18:01N 37°49' E 023°37'714.4
2018-May-21 17:30N 37°56' E 023°38'0 0.0
2018-May-21 17:00N 37°56' E 023°38'0 0.0
2018-May-21 16:30N 37°56' E 023°38'0 0.0
2018-May-21 16:00N 37°56' E 023°38'0 0.0
2018-May-21 15:30N 37°56' E 023°38'0 0.0
2018-May-21 15:00N 37°56' E 023°38'0 0.0
2018-May-21 14:30N 37°56' E 023°38'0 0.0
2018-May-21 14:00N 37°56' E 023°38'0 0.0
2018-May-21 13:30N 37°56' E 023°38'0 0.0
2018-May-21 13:00N 37°56' E 023°38'0 0.0
2018-May-21 12:30N 37°56' E 023°38'0 0.0
2018-May-21 12:00N 37°56' E 023°38'0 0.0
2018-May-21 11:30N 37°56' E 023°38'0 0.0
2018-May-21 11:00N 37°56' E 023°38'0 0.0
2018-May-21 10:30N 37°56' E 023°38'0 0.0
2018-May-21 10:00N 37°56' E 023°38'0 0.0
2018-May-21 09:30N 37°56' E 023°38'0 0.0
2018-May-21 09:00N 37°56' E 023°38'0 0.0
2018-May-21 08:30N 37°56' E 023°38'0 0.0
2018-May-21 08:00N 37°56' E 023°38'0 0.0
2018-May-21 07:30N 37°56' E 023°38'0 0.0
2018-May-21 07:00N 37°56' E 023°38'0 0.0
2018-May-21 06:30N 37°56' E 023°38'0 0.0
2018-May-21 06:00N 37°56' E 023°38'0 0.0
2018-May-21 05:30N 37°56' E 023°38'0 0.0
2018-May-21 04:58N 37°56' E 023°38'0 0.0
2018-May-21 04:28N 37°56' E 023°38'0 0.0
2018-May-21 03:58N 37°56' E 023°38'0 0.0
2018-May-21 03:28N 37°56' E 023°38'1 2.3
2018-May-21 03:00N 37°56' E 023°37'918.7
2018-May-21 02:30N 37°47' E 023°42'1019.2
2018-May-21 02:00N 37°40' E 023°50'1119.8
2018-May-21 01:26N 37°38' E 024°04'1120.3
2018-May-21 00:54N 37°44' E 024°16'820.5
2018-May-21 00:30N 37°49' E 024°24'  
2018-May-18 20:22N 37°49' E 024°25'719.8
2018-May-18 20:00N 37°45' E 024°17'1718.7
2018-May-18 19:05N 37°38' E 023°57'220.2
2018-May-18 19:00N 37°38' E 023°55'1020.1
2018-May-18 18:31N 37°40' E 023°43'1019.5
2018-May-18 18:00N 37°49' E 023°38'714.8
2018-May-18 17:30N 37°56' E 023°38'0 0.0
2018-May-18 17:00N 37°56' E 023°38'0 0.0
2018-May-18 16:30N 37°56' E 023°38'0 0.0
2018-May-18 16:00N 37°56' E 023°38'0 0.0
2018-May-18 15:29N 37°56' E 023°38'0 0.0
2018-May-18 15:00N 37°56' E 023°38'0 0.0
2018-May-18 14:30N 37°56' E 023°38'0 0.0
2018-May-18 14:00N 37°56' E 023°38'0 0.0
2018-May-18 13:30N 37°56' E 023°38'0 0.0
2018-May-18 13:00N 37°56' E 023°38'0 0.0
2018-May-18 12:30N 37°56' E 023°38'0 0.0
2018-May-18 12:00N 37°56' E 023°38'0 0.0
2018-May-18 11:30N 37°56' E 023°38'0 0.0
2018-May-18 11:00N 37°56' E 023°38'0 0.0
2018-May-18 10:30N 37°56' E 023°38'0 0.0
2018-May-18 10:00N 37°56' E 023°38'0 0.0
2018-May-18 09:30N 37°56' E 023°38'0 0.0
2018-May-18 09:00N 37°56' E 023°38'0 0.0
2018-May-18 08:30N 37°56' E 023°38'0 0.0
2018-May-18 08:00N 37°56' E 023°38'0 0.0
2018-May-18 07:30N 37°56' E 023°38'0 0.0
2018-May-18 07:00N 37°56' E 023°38'0 0.0
2018-May-18 06:30N 37°56' E 023°38'0 0.0
2018-May-18 06:00N 37°56' E 023°38'0 0.0
2018-May-18 05:30N 37°56' E 023°38'0 0.0
2018-May-18 05:00N 37°56' E 023°38'0 0.0
2018-May-18 04:30N 37°56' E 023°38'0 0.0
2018-May-18 04:00N 37°56' E 023°38'0 0.0
2018-May-18 03:30N 37°56' E 023°38'2 3.9
2018-May-18 03:00N 37°55' E 023°38'1019.6
2018-May-18 02:30N 37°46' E 023°43'918.9
2018-May-18 02:00N 37°39' E 023°52'1219.7
2018-May-18 01:23N 37°38' E 024°07'920.4
2018-May-18 00:57N 37°44' E 024°16'9 0.3
2018-May-16 20:22N 37°49' E 024°25'719.7
2018-May-16 20:00N 37°44' E 024°18'1319.4
2018-May-16 19:22N 37°38' E 024°04'720.0
2018-May-16 19:00N 37°38' E 023°55'1019.9
2018-May-16 18:30N 37°40' E 023°43'1019.8
2018-May-16 18:00N 37°49' E 023°38'713.6
2018-May-16 17:28N 37°56' E 023°38'0 0.0
2018-May-16 16:58N 37°56' E 023°38'0 0.0
2018-May-16 16:28N 37°56' E 023°38'0 0.0
2018-May-16 15:58N 37°56' E 023°38'0 0.0
2018-May-16 15:28N 37°56' E 023°38'0 0.0
2018-May-16 14:58N 37°56' E 023°38'0 0.0
2018-May-16 14:28N 37°56' E 023°38'0 0.0
2018-May-16 13:58N 37°56' E 023°38'0 0.0
2018-May-16 13:28N 37°56' E 023°38'0 0.0
2018-May-16 12:58N 37°56' E 023°38'0 0.0
2018-May-16 12:28N 37°56' E 023°38'0 0.0
2018-May-16 11:58N 37°56' E 023°38'0 0.0
2018-May-16 11:28N 37°56' E 023°38'0 0.0
2018-May-16 10:58N 37°56' E 023°38'0 0.0
2018-May-16 10:28N 37°56' E 023°38'0 0.0
2018-May-16 09:58N 37°56' E 023°38'0 0.0
2018-May-16 09:28N 37°56' E 023°38'0 0.0
2018-May-16 08:58N 37°56' E 023°38'0 0.0
2018-May-16 08:28N 37°56' E 023°38'0 0.0
2018-May-16 07:58N 37°56' E 023°38'0 0.0
2018-May-16 07:28N 37°56' E 023°38'0 0.0
2018-May-16 06:58N 37°56' E 023°38'0 0.0
2018-May-16 06:28N 37°56' E 023°38'0 0.0
2018-May-16 05:58N 37°56' E 023°38'0 0.0
2018-May-16 05:28N 37°56' E 023°38'0 0.0
2018-May-16 04:58N 37°56' E 023°38'0 0.0
2018-May-16 04:28N 37°56' E 023°38'0 0.0
2018-May-16 04:00N 37°56' E 023°38'3 6.9
2018-May-16 03:30N 37°53' E 023°38'1020.2
2018-May-16 03:00N 37°44' E 023°44'1019.1
2018-May-16 02:30N 37°39' E 023°54'1818.6
2018-May-16 01:32N 37°44' E 024°16'120.6
2018-May-16 01:30N 37°44' E 024°16'  
Track history (hours):
 
Tides and Currents Weather Stations Pressure Air Temp Water Temp Dewpoint Dewpoint Depression Visibility Wind Speed Wind Dir Waves Ship Positions

Nissos Samos

Last reported at 2018-May-25 18:43 UTC. Time now 2018-May-27 08:10 UTC.
Position N 37°39' E 023°49'.

Length 193 m; draft 6.6 m.

Type: Passenger vessel. MMSI: 241470000.

Date/timePositionNaut miles runAvg speedWind from/ knotsBaromVisibWave heightAir tempDewpointWater temp
2018-May-25 18:43N 37°39' E 023°49'519.3
2018-May-25 18:26N 37°41' E 023°42'819.7
2018-May-25 18:01N 37°49' E 023°38'815.1
2018-May-25 17:29N 37°56' E 023°38'0 0.0
2018-May-25 16:59N 37°56' E 023°38'0 0.0
2018-May-25 16:29N 37°56' E 023°38'0 0.0
2018-May-25 15:56N 37°56' E 023°38'0 0.0
2018-May-25 15:29N 37°56' E 023°38'0 0.0
2018-May-25 14:59N 37°56' E 023°38'0 0.0
2018-May-25 14:26N 37°56' E 023°38'0 0.0
2018-May-25 13:59N 37°56' E 023°38'0 0.0
2018-May-25 13:29N 37°56' E 023°38'0 0.0
2018-May-25 12:56N 37°56' E 023°38'0 0.0
2018-May-25 12:29N 37°56' E 023°38'0 0.0
2018-May-25 11:59N 37°56' E 023°38'0 0.0
2018-May-25 11:29N 37°56' E 023°38'0 0.0
2018-May-25 10:59N 37°56' E 023°38'0 0.0
2018-May-25 10:29N 37°56' E 023°38'0 0.0
2018-May-25 09:59N 37°56' E 023°38'0 0.0
2018-May-25 09:29N 37°56' E 023°38'0 0.0
2018-May-25 08:59N 37°56' E 023°38'0 0.0
2018-May-25 08:29N 37°56' E 023°38'0 0.0
2018-May-25 07:59N 37°56' E 023°38'0 0.0
2018-May-25 07:29N 37°56' E 023°38'0 0.0
2018-May-25 06:59N 37°56' E 023°38'0 0.0
2018-May-25 06:29N 37°56' E 023°38'0 0.0
2018-May-25 05:59N 37°56' E 023°38'0 0.0
2018-May-25 05:29N 37°56' E 023°38'0 0.0
2018-May-25 04:59N 37°56' E 023°38'0 0.0
2018-May-25 04:29N 37°56' E 023°38'0 0.0
2018-May-25 03:59N 37°56' E 023°38'0 0.0
2018-May-25 03:29N 37°56' E 023°38'2 3.5
2018-May-25 03:00N 37°55' E 023°37'918.9
2018-May-25 02:30N 37°46' E 023°43'918.6
2018-May-25 02:00N 37°40' E 023°51'1319.6
2018-May-25 01:21N 37°38' E 024°07'1020.3
2018-May-25 00:52N 37°45' E 024°17'10 0.3
2018-May-23 19:36N 37°38' E 024°07'619.2
2018-May-23 19:19N 37°38' E 023°60'619.7
2018-May-23 19:00N 37°38' E 023°52'918.7
2018-May-23 18:31N 37°42' E 023°41'1019.4
2018-May-23 18:01N 37°51' E 023°37'610.7
2018-May-23 17:29N 37°56' E 023°38'0 0.0
2018-May-23 16:59N 37°56' E 023°38'0 0.0
2018-May-23 16:29N 37°56' E 023°38'0 0.0
2018-May-23 15:59N 37°56' E 023°38'0 0.0
2018-May-23 15:29N 37°56' E 023°38'0 0.0
2018-May-23 14:59N 37°56' E 023°38'0 0.0
2018-May-23 14:29N 37°56' E 023°38'0 0.0
2018-May-23 13:59N 37°56' E 023°38'0 0.0
2018-May-23 13:29N 37°56' E 023°38'0 0.0
2018-May-23 12:59N 37°56' E 023°38'0 0.0
2018-May-23 12:29N 37°56' E 023°38'0 0.0
2018-May-23 11:59N 37°56' E 023°38'0 0.0
2018-May-23 11:29N 37°56' E 023°38'0 0.0
2018-May-23 10:59N 37°56' E 023°38'0 0.0
2018-May-23 10:29N 37°56' E 023°38'0 0.0
2018-May-23 09:59N 37°56' E 023°38'0 0.0
2018-May-23 09:29N 37°56' E 023°38'0 0.0
2018-May-23 08:59N 37°56' E 023°38'0 0.0
2018-May-23 08:29N 37°56' E 023°38'0 0.0
2018-May-23 07:59N 37°56' E 023°38'0 0.0
2018-May-23 07:29N 37°56' E 023°38'0 0.0
2018-May-23 06:59N 37°56' E 023°38'0 0.0
2018-May-23 06:29N 37°56' E 023°38'0 0.0
2018-May-23 05:59N 37°56' E 023°38'0 0.0
2018-May-23 05:29N 37°56' E 023°38'0 0.0
2018-May-23 04:59N 37°56' E 023°38'0 0.0
2018-May-23 04:30N 37°56' E 023°38'0 0.0
2018-May-23 04:00N 37°56' E 023°38'1 2.9
2018-May-23 03:30N 37°55' E 023°37'917.3
2018-May-23 03:00N 37°47' E 023°42'918.8
2018-May-23 02:30N 37°40' E 023°50'1419.7
2018-May-23 01:49N 37°38' E 024°07'920.7
2018-May-23 01:22N 37°44' E 024°16'820.7
2018-May-23 00:58N 37°49' E 024°25'17 0.6
2018-May-21 19:32N 37°38' E 024°07'218.7
2018-May-21 19:24N 37°38' E 024°04'819.5
2018-May-21 18:59N 37°38' E 023°54'919.6
2018-May-21 18:31N 37°41' E 023°43'1019.3
2018-May-21 18:01N 37°49' E 023°37'714.4
2018-May-21 17:30N 37°56' E 023°38'0 0.0
2018-May-21 17:00N 37°56' E 023°38'0 0.0
2018-May-21 16:30N 37°56' E 023°38'0 0.0
2018-May-21 16:00N 37°56' E 023°38'0 0.0
2018-May-21 15:30N 37°56' E 023°38'0 0.0
2018-May-21 15:00N 37°56' E 023°38'0 0.0
2018-May-21 14:30N 37°56' E 023°38'0 0.0
2018-May-21 14:00N 37°56' E 023°38'0 0.0
2018-May-21 13:30N 37°56' E 023°38'0 0.0
2018-May-21 13:00N 37°56' E 023°38'0 0.0
2018-May-21 12:30N 37°56' E 023°38'0 0.0
2018-May-21 12:00N 37°56' E 023°38'0 0.0
2018-May-21 11:30N 37°56' E 023°38'0 0.0
2018-May-21 11:00N 37°56' E 023°38'0 0.0
2018-May-21 10:30N 37°56' E 023°38'0 0.0
2018-May-21 10:00N 37°56' E 023°38'0 0.0
2018-May-21 09:30N 37°56' E 023°38'0 0.0
2018-May-21 09:00N 37°56' E 023°38'0 0.0
2018-May-21 08:30N 37°56' E 023°38'0 0.0
2018-May-21 08:00N 37°56' E 023°38'0 0.0
2018-May-21 07:30N 37°56' E 023°38'0 0.0
2018-May-21 07:00N 37°56' E 023°38'0 0.0
2018-May-21 06:30N 37°56' E 023°38'0 0.0
2018-May-21 06:00N 37°56' E 023°38'0 0.0
2018-May-21 05:30N 37°56' E 023°38'0 0.0
2018-May-21 04:58N 37°56' E 023°38'0 0.0
2018-May-21 04:28N 37°56' E 023°38'0 0.0
2018-May-21 03:58N 37°56' E 023°38'0 0.0
2018-May-21 03:28N 37°56' E 023°38'1 2.3
2018-May-21 03:00N 37°56' E 023°37'918.7
2018-May-21 02:30N 37°47' E 023°42'1019.2
2018-May-21 02:00N 37°40' E 023°50'1119.8
2018-May-21 01:26N 37°38' E 024°04'1120.3
2018-May-21 00:54N 37°44' E 024°16'820.5
2018-May-21 00:30N 37°49' E 024°24'  
2018-May-18 20:22N 37°49' E 024°25'719.8
2018-May-18 20:00N 37°45' E 024°17'1718.7
2018-May-18 19:05N 37°38' E 023°57'220.2
2018-May-18 19:00N 37°38' E 023°55'1020.1
2018-May-18 18:31N 37°40' E 023°43'1019.5
2018-May-18 18:00N 37°49' E 023°38'714.8
2018-May-18 17:30N 37°56' E 023°38'0 0.0
2018-May-18 17:00N 37°56' E 023°38'0 0.0
2018-May-18 16:30N 37°56' E 023°38'0 0.0
2018-May-18 16:00N 37°56' E 023°38'0 0.0
2018-May-18 15:29N 37°56' E 023°38'0 0.0
2018-May-18 15:00N 37°56' E 023°38'0 0.0
2018-May-18 14:30N 37°56' E 023°38'0 0.0
2018-May-18 14:00N 37°56' E 023°38'0 0.0
2018-May-18 13:30N 37°56' E 023°38'0 0.0
2018-May-18 13:00N 37°56' E 023°38'0 0.0
2018-May-18 12:30N 37°56' E 023°38'0 0.0
2018-May-18 12:00N 37°56' E 023°38'0 0.0
2018-May-18 11:30N 37°56' E 023°38'0 0.0
2018-May-18 11:00N 37°56' E 023°38'0 0.0
2018-May-18 10:30N 37°56' E 023°38'0 0.0
2018-May-18 10:00N 37°56' E 023°38'0 0.0
2018-May-18 09:30N 37°56' E 023°38'0 0.0
2018-May-18 09:00N 37°56' E 023°38'0 0.0
2018-May-18 08:30N 37°56' E 023°38'0 0.0
2018-May-18 08:00N 37°56' E 023°38'0 0.0
2018-May-18 07:30N 37°56' E 023°38'0 0.0
2018-May-18 07:00N 37°56' E 023°38'0 0.0
2018-May-18 06:30N 37°56' E 023°38'0 0.0
2018-May-18 06:00N 37°56' E 023°38'0 0.0
2018-May-18 05:30N 37°56' E 023°38'0 0.0
2018-May-18 05:00N 37°56' E 023°38'0 0.0
2018-May-18 04:30N 37°56' E 023°38'0 0.0
2018-May-18 04:00N 37°56' E 023°38'0 0.0
2018-May-18 03:30N 37°56' E 023°38'2 3.9
2018-May-18 03:00N 37°55' E 023°38'1019.6
2018-May-18 02:30N 37°46' E 023°43'918.9
2018-May-18 02:00N 37°39' E 023°52'1219.7
2018-May-18 01:23N 37°38' E 024°07'920.4
2018-May-18 00:57N 37°44' E 024°16'9 0.3
2018-May-16 20:22N 37°49' E 024°25'719.7
2018-May-16 20:00N 37°44' E 024°18'1319.4
2018-May-16 19:22N 37°38' E 024°04'720.0
2018-May-16 19:00N 37°38' E 023°55'1019.9
2018-May-16 18:30N 37°40' E 023°43'1019.8
2018-May-16 18:00N 37°49' E 023°38'713.6
2018-May-16 17:28N 37°56' E 023°38'0 0.0
2018-May-16 16:58N 37°56' E 023°38'0 0.0
2018-May-16 16:28N 37°56' E 023°38'0 0.0
2018-May-16 15:58N 37°56' E 023°38'0 0.0
2018-May-16 15:28N 37°56' E 023°38'0 0.0
2018-May-16 14:58N 37°56' E 023°38'0 0.0
2018-May-16 14:28N 37°56' E 023°38'0 0.0
2018-May-16 13:58N 37°56' E 023°38'0 0.0
2018-May-16 13:28N 37°56' E 023°38'0 0.0
2018-May-16 12:58N 37°56' E 023°38'0 0.0
2018-May-16 12:28N 37°56' E 023°38'0 0.0
2018-May-16 11:58N 37°56' E 023°38'0 0.0
2018-May-16 11:28N 37°56' E 023°38'0 0.0
2018-May-16 10:58N 37°56' E 023°38'0 0.0
2018-May-16 10:28N 37°56' E 023°38'0 0.0
2018-May-16 09:58N 37°56' E 023°38'0 0.0
2018-May-16 09:28N 37°56' E 023°38'0 0.0
2018-May-16 08:58N 37°56' E 023°38'0 0.0
2018-May-16 08:28N 37°56' E 023°38'0 0.0
2018-May-16 07:58N 37°56' E 023°38'0 0.0
2018-May-16 07:28N 37°56' E 023°38'0 0.0
2018-May-16 06:58N 37°56' E 023°38'0 0.0
2018-May-16 06:28N 37°56' E 023°38'0 0.0
2018-May-16 05:58N 37°56' E 023°38'0 0.0
2018-May-16 05:28N 37°56' E 023°38'0 0.0
2018-May-16 04:58N 37°56' E 023°38'0 0.0
2018-May-16 04:28N 37°56' E 023°38'0 0.0
2018-May-16 04:00N 37°56' E 023°38'3 6.9
2018-May-16 03:30N 37°53' E 023°38'1020.2
2018-May-16 03:00N 37°44' E 023°44'1019.1
2018-May-16 02:30N 37°39' E 023°54'1818.6
2018-May-16 01:32N 37°44' E 024°16'120.6
2018-May-16 01:30N 37°44' E 024°16'  

Dump ship's entire track history